NOZ82J EKCH-ENTC
Flight info
| Callsign | NOZ82J |
|---|---|
| Flight time | N/A |
| Altitude | 33000 |
| Route | VEDAR DCT PENNO DCT ATWEG |
| Aircraft | B738/M-SDE2E3FGHIRWXY/LB1 |
Departure
| Time | 2026-05-01 15:28 |
|---|---|
| Airport | Copenhagen Kastrup Airport (EKCH) |
Arrival
| Time | N/A |
|---|---|
| Airport | Tromsø Airport (ENTC) |
| Time | Latitude | Longitude | Altitude | Speed | Heading |
|---|---|---|---|---|---|
| 2026-05-01 14:54 | 55.62872 | 12.64067 | 17 ft | 0 kts | 10° |
| 2026-05-01 15:18 | 55.62819 | 12.64027 | 16 ft | 4 kts | 51° |
| 2026-05-01 15:18 | 55.62802 | 12.63992 | 19 ft | 4 kts | 34° |
| 2026-05-01 15:19 | 55.62786 | 12.63884 | 16 ft | 4 kts | 115° |
| 2026-05-01 15:19 | 55.62792 | 12.63862 | 17 ft | 0 kts | 115° |
| 2026-05-01 15:21 | 55.62791 | 12.63866 | 17 ft | 2 kts | 115° |
| 2026-05-01 15:21 | 55.62770 | 12.63926 | 18 ft | 7 kts | 142° |
| 2026-05-01 15:22 | 55.62665 | 12.63851 | 16 ft | 12 kts | 177° |
| 2026-05-01 15:22 | 55.62611 | 12.63959 | 17 ft | 13 kts | 123° |
| 2026-05-01 15:22 | 55.62560 | 12.64098 | 16 ft | 18 kts | 123° |
| 2026-05-01 15:23 | 55.62485 | 12.64302 | 16 ft | 20 kts | 126° |
| 2026-05-01 15:23 | 55.62418 | 12.64445 | 16 ft | 11 kts | 147° |
| 2026-05-01 15:23 | 55.62358 | 12.64435 | 16 ft | 4 kts | 194° |
| 2026-05-01 15:23 | 55.62357 | 12.64435 | 16 ft | 0 kts | 194° |
| 2026-05-01 15:24 | 55.62356 | 12.64434 | 16 ft | 1 kts | 194° |
| 2026-05-01 15:24 | 55.62296 | 12.64406 | 16 ft | 16 kts | 194° |
| 2026-05-01 15:25 | 55.62083 | 12.64248 | 16 ft | 16 kts | 205° |
| 2026-05-01 15:25 | 55.61989 | 12.64170 | 17 ft | 13 kts | 205° |
| 2026-05-01 15:25 | 55.61914 | 12.64107 | 17 ft | 11 kts | 205° |
| 2026-05-01 15:25 | 55.61843 | 12.64068 | 16 ft | 11 kts | 178° |
| 2026-05-01 15:26 | 55.61770 | 12.64078 | 16 ft | 10 kts | 176° |
| 2026-05-01 15:26 | 55.61694 | 12.64087 | 16 ft | 14 kts | 176° |
| 2026-05-01 15:26 | 55.61601 | 12.64037 | 17 ft | 15 kts | 222° |
| 2026-05-01 15:26 | 55.61434 | 12.63776 | 16 ft | 61 kts | 221° |
| 2026-05-01 15:27 | 55.60954 | 12.63039 | 18 ft | 120 kts | 220° |
| 2026-05-01 15:27 | 55.60197 | 12.61872 | 18 ft | 167 kts | 220° |
| 2026-05-01 15:27 | 55.59266 | 12.60433 | 383 ft | 180 kts | 221° |
| 2026-05-01 15:28 | 55.57350 | 12.57493 | 1694 ft | 183 kts | 221° |
| 2026-05-01 15:28 | 55.56405 | 12.55893 | 2051 ft | 199 kts | 236° |
| 2026-05-01 15:28 | 55.55979 | 12.53549 | 2295 ft | 211 kts | 272° |
| 2026-05-01 15:29 | 55.56588 | 12.48139 | 2708 ft | 242 kts | 280° |
| 2026-05-01 15:29 | 55.56881 | 12.45132 | 3116 ft | 253 kts | 278° |
| 2026-05-01 15:29 | 55.57381 | 12.38900 | 4392 ft | 258 kts | 276° |
| 2026-05-01 15:30 | 55.58431 | 12.32839 | 5583 ft | 270 kts | 310° |
| 2026-05-01 15:31 | 55.65776 | 12.29524 | 8108 ft | 288 kts | 351° |
| 2026-05-01 15:31 | 55.69821 | 12.28740 | 9397 ft | 295 kts | 351° |
| 2026-05-01 15:32 | 55.73928 | 12.27947 | 10639 ft | 304 kts | 351° |
| 2026-05-01 15:32 | 55.78407 | 12.27072 | 10966 ft | 345 kts | 351° |
| 2026-05-01 15:33 | 55.85805 | 12.25647 | 12646 ft | 361 kts | 351° |
| 2026-05-01 15:34 | 55.93386 | 12.24186 | 14614 ft | 370 kts | 351° |